sensor_id;sensor_type;location;lat;lon;timestamp;temperature;humidity
40638;DHT22;26336;44.696;10.622;2024-01-10T00:02:50;4.30;99.90
40638;DHT22;26336;44.696;10.622;2024-01-10T00:05:54;4.40;99.90
40638;DHT22;26336;44.696;10.622;2024-01-10T00:08:58;4.60;99.90
40638;DHT22;26336;44.696;10.622;2024-01-10T00:12:02;4.60;99.90
40638;DHT22;26336;44.696;10.622;2024-01-10T00:15:06;4.60;99.90
40638;DHT22;26336;44.696;10.622;2024-01-10T00:18:11;4.60;99.90
40638;DHT22;26336;44.696;10.622;2024-01-10T00:21:15;4.60;99.90
40638;DHT22;26336;44.696;10.622;2024-01-10T00:24:19;4.40;99.90
40638;DHT22;26336;44.696;10.622;2024-01-10T00:27:23;4.50;99.90
40638;DHT22;26336;44.696;10.622;2024-01-10T00:30:27;4.70;99.90
40638;DHT22;26336;44.696;10.622;2024-01-10T00:33:31;4.70;99.90
40638;DHT22;26336;44.696;10.622;2024-01-10T00:36:35;4.70;99.90
40638;DHT22;26336;44.696;10.622;2024-01-10T00:39:39;4.60;99.90
40638;DHT22;26336;44.696;10.622;2024-01-10T00:42:43;4.70;99.90
40638;DHT22;26336;44.696;10.622;2024-01-10T00:45:47;4.80;99.90
40638;DHT22;26336;44.696;10.622;2024-01-10T00:48:51;4.90;99.90
40638;DHT22;26336;44.696;10.622;2024-01-10T00:51:55;5.00;99.90
40638;DHT22;26336;44.696;10.622;2024-01-10T00:54:59;5.00;99.90
40638;DHT22;26336;44.696;10.622;2024-01-10T00:58:05;5.00;99.90
40638;DHT22;26336;44.696;10.622;2024-01-10T01:01:10;5.00;99.90
40638;DHT22;26336;44.696;10.622;2024-01-10T01:04:14;5.00;99.90
40638;DHT22;26336;44.696;10.622;2024-01-10T01:07:21;5.00;99.90
40638;DHT22;26336;44.696;10.622;2024-01-10T01:10:25;4.90;99.90
40638;DHT22;26336;44.696;10.622;2024-01-10T01:13:29;4.90;99.90
40638;DHT22;26336;44.696;10.622;2024-01-10T01:16:32;4.80;99.90
40638;DHT22;26336;44.696;10.622;2024-01-10T01:19:36;4.80;99.90
40638;DHT22;26336;44.696;10.622;2024-01-10T01:22:40;4.80;99.90
40638;DHT22;26336;44.696;10.622;2024-01-10T01:25:44;4.70;99.90
40638;DHT22;26336;44.696;10.622;2024-01-10T01:28:47;4.70;99.90
40638;DHT22;26336;44.696;10.622;2024-01-10T01:31:51;4.70;99.90
40638;DHT22;26336;44.696;10.622;2024-01-10T01:34:57;4.70;99.90
40638;DHT22;26336;44.696;10.622;2024-01-10T01:38:01;4.70;99.90
40638;DHT22;26336;44.696;10.622;2024-01-10T01:41:05;4.70;99.90
40638;DHT22;26336;44.696;10.622;2024-01-10T01:44:09;4.70;99.90
40638;DHT22;26336;44.696;10.622;2024-01-10T01:47:13;4.70;99.90
40638;DHT22;26336;44.696;10.622;2024-01-10T01:50:18;4.70;99.90
40638;DHT22;26336;44.696;10.622;2024-01-10T01:53:22;4.60;99.90
40638;DHT22;26336;44.696;10.622;2024-01-10T01:56:27;4.60;99.90
40638;DHT22;26336;44.696;10.622;2024-01-10T01:59:30;4.50;99.90
40638;DHT22;26336;44.696;10.622;2024-01-10T02:02:35;4.40;99.90
40638;DHT22;26336;44.696;10.622;2024-01-10T02:05:40;4.40;99.90
40638;DHT22;26336;44.696;10.622;2024-01-10T02:08:44;4.40;99.90
40638;DHT22;26336;44.696;10.622;2024-01-10T02:11:48;4.30;99.90
40638;DHT22;26336;44.696;10.622;2024-01-10T02:14:52;4.30;99.90
40638;DHT22;26336;44.696;10.622;2024-01-10T02:17:56;4.20;99.90
40638;DHT22;26336;44.696;10.622;2024-01-10T02:21:01;4.30;99.90
40638;DHT22;26336;44.696;10.622;2024-01-10T02:24:05;4.20;99.90
40638;DHT22;26336;44.696;10.622;2024-01-10T02:27:09;4.20;99.90
40638;DHT22;26336;44.696;10.622;2024-01-10T02:30:13;4.20;99.90
40638;DHT22;26336;44.696;10.622;2024-01-10T02:33:17;4.20;99.90
40638;DHT22;26336;44.696;10.622;2024-01-10T02:36:21;4.10;99.90
40638;DHT22;26336;44.696;10.622;2024-01-10T02:39:25;4.10;99.90
40638;DHT22;26336;44.696;10.622;2024-01-10T02:42:30;4.10;99.90
40638;DHT22;26336;44.696;10.622;2024-01-10T02:45:34;4.10;99.90
40638;DHT22;26336;44.696;10.622;2024-01-10T02:48:39;4.10;99.90
40638;DHT22;26336;44.696;10.622;2024-01-10T02:51:43;4.10;99.90
40638;DHT22;26336;44.696;10.622;2024-01-10T02:54:47;4.20;99.90
40638;DHT22;26336;44.696;10.622;2024-01-10T02:57:50;4.20;99.90
40638;DHT22;26336;44.696;10.622;2024-01-10T03:00:55;4.20;99.90
40638;DHT22;26336;44.696;10.622;2024-01-10T03:04:01;4.20;99.90
40638;DHT22;26336;44.696;10.622;2024-01-10T03:07:05;4.10;99.90
40638;DHT22;26336;44.696;10.622;2024-01-10T03:10:09;4.20;99.90
40638;DHT22;26336;44.696;10.622;2024-01-10T03:13:13;4.20;99.90
40638;DHT22;26336;44.696;10.622;2024-01-10T03:16:17;4.20;99.90
40638;DHT22;26336;44.696;10.622;2024-01-10T03:19:22;4.10;99.90
40638;DHT22;26336;44.696;10.622;2024-01-10T03:22:26;4.10;99.90
40638;DHT22;26336;44.696;10.622;2024-01-10T03:25:30;4.10;99.90
40638;DHT22;26336;44.696;10.622;2024-01-10T03:28:34;4.10;99.90
40638;DHT22;26336;44.696;10.622;2024-01-10T03:31:38;4.00;99.90
40638;DHT22;26336;44.696;10.622;2024-01-10T03:34:42;4.00;99.90
40638;DHT22;26336;44.696;10.622;2024-01-10T03:37:46;4.00;99.90
40638;DHT22;26336;44.696;10.622;2024-01-10T03:40:50;3.90;99.90
40638;DHT22;26336;44.696;10.622;2024-01-10T03:43:54;3.90;99.90
40638;DHT22;26336;44.696;10.622;2024-01-10T03:46:58;3.90;99.90
40638;DHT22;26336;44.696;10.622;2024-01-10T03:50:02;3.90;99.90
40638;DHT22;26336;44.696;10.622;2024-01-10T03:53:06;3.90;99.90
40638;DHT22;26336;44.696;10.622;2024-01-10T03:56:10;3.80;99.90
40638;DHT22;26336;44.696;10.622;2024-01-10T03:59:15;3.90;99.90
40638;DHT22;26336;44.696;10.622;2024-01-10T04:02:19;3.80;99.90
40638;DHT22;26336;44.696;10.622;2024-01-10T04:05:22;3.80;99.90
40638;DHT22;26336;44.696;10.622;2024-01-10T04:08:29;3.80;99.90
40638;DHT22;26336;44.696;10.622;2024-01-10T04:11:33;3.80;99.90
40638;DHT22;26336;44.696;10.622;2024-01-10T04:14:37;3.80;99.90
40638;DHT22;26336;44.696;10.622;2024-01-10T04:17:41;3.80;99.90
40638;DHT22;26336;44.696;10.622;2024-01-10T04:20:45;3.90;99.90
40638;DHT22;26336;44.696;10.622;2024-01-10T04:23:49;3.90;99.90
40638;DHT22;26336;44.696;10.622;2024-01-10T04:26:52;3.80;99.90
40638;DHT22;26336;44.696;10.622;2024-01-10T04:29:56;3.80;99.90
40638;DHT22;26336;44.696;10.622;2024-01-10T04:33:00;3.80;99.90
40638;DHT22;26336;44.696;10.622;2024-01-10T04:36:04;3.80;99.90
40638;DHT22;26336;44.696;10.622;2024-01-10T04:39:08;3.80;99.90
40638;DHT22;26336;44.696;10.622;2024-01-10T04:42:12;3.80;99.90
40638;DHT22;26336;44.696;10.622;2024-01-10T04:45:16;3.80;99.90
40638;DHT22;26336;44.696;10.622;2024-01-10T04:48:20;3.70;99.90
40638;DHT22;26336;44.696;10.622;2024-01-10T04:51:24;3.70;99.90
40638;DHT22;26336;44.696;10.622;2024-01-10T04:54:28;3.70;99.90
40638;DHT22;26336;44.696;10.622;2024-01-10T04:57:32;3.70;99.90
40638;DHT22;26336;44.696;10.622;2024-01-10T05:00:36;3.60;99.90
40638;DHT22;26336;44.696;10.622;2024-01-10T05:03:40;3.60;99.90
40638;DHT22;26336;44.696;10.622;2024-01-10T05:06:44;3.50;99.90
40638;DHT22;26336;44.696;10.622;2024-01-10T05:09:47;3.50;99.90
40638;DHT22;26336;44.696;10.622;2024-01-10T05:12:51;3.50;99.90
40638;DHT22;26336;44.696;10.622;2024-01-10T05:15:55;3.40;99.90
40638;DHT22;26336;44.696;10.622;2024-01-10T05:19:02;3.40;99.90
40638;DHT22;26336;44.696;10.622;2024-01-10T05:22:06;3.40;99.90
40638;DHT22;26336;44.696;10.622;2024-01-10T05:25:10;3.50;99.90
40638;DHT22;26336;44.696;10.622;2024-01-10T05:28:14;3.40;99.90
40638;DHT22;26336;44.696;10.622;2024-01-10T05:31:18;3.50;99.90
40638;DHT22;26336;44.696;10.622;2024-01-10T05:34:22;3.50;99.90
40638;DHT22;26336;44.696;10.622;2024-01-10T05:37:26;3.50;99.90
40638;DHT22;26336;44.696;10.622;2024-01-10T05:40:30;3.50;99.90
40638;DHT22;26336;44.696;10.622;2024-01-10T05:43:35;3.50;99.90
40638;DHT22;26336;44.696;10.622;2024-01-10T05:46:40;3.50;99.90
40638;DHT22;26336;44.696;10.622;2024-01-10T05:49:46;3.50;99.90
40638;DHT22;26336;44.696;10.622;2024-01-10T05:52:49;3.50;99.90
40638;DHT22;26336;44.696;10.622;2024-01-10T05:55:53;3.50;99.90
40638;DHT22;26336;44.696;10.622;2024-01-10T05:58:57;3.50;99.90
40638;DHT22;26336;44.696;10.622;2024-01-10T06:02:02;3.50;99.90
40638;DHT22;26336;44.696;10.622;2024-01-10T06:05:07;3.50;99.90
40638;DHT22;26336;44.696;10.622;2024-01-10T06:08:12;3.50;99.90
40638;DHT22;26336;44.696;10.622;2024-01-10T06:11:18;3.50;99.90
40638;DHT22;26336;44.696;10.622;2024-01-10T06:14:22;3.50;99.90
40638;DHT22;26336;44.696;10.622;2024-01-10T06:17:26;3.50;99.90
40638;DHT22;26336;44.696;10.622;2024-01-10T06:20:30;3.50;99.90
40638;DHT22;26336;44.696;10.622;2024-01-10T06:23:35;3.50;99.90
40638;DHT22;26336;44.696;10.622;2024-01-10T06:26:38;3.50;99.90
40638;DHT22;26336;44.696;10.622;2024-01-10T06:29:43;3.40;99.90
40638;DHT22;26336;44.696;10.622;2024-01-10T06:32:49;3.40;99.90
40638;DHT22;26336;44.696;10.622;2024-01-10T06:35:53;3.40;99.90
40638;DHT22;26336;44.696;10.622;2024-01-10T06:38:58;3.30;99.90
40638;DHT22;26336;44.696;10.622;2024-01-10T06:42:02;3.30;99.90
40638;DHT22;26336;44.696;10.622;2024-01-10T06:45:10;3.30;99.90
40638;DHT22;26336;44.696;10.622;2024-01-10T06:48:15;3.30;99.90
40638;DHT22;26336;44.696;10.622;2024-01-10T06:51:19;3.30;99.90
40638;DHT22;26336;44.696;10.622;2024-01-10T06:54:23;3.30;99.90
40638;DHT22;26336;44.696;10.622;2024-01-10T06:57:27;3.20;99.90
40638;DHT22;26336;44.696;10.622;2024-01-10T07:00:31;3.20;99.90
40638;DHT22;26336;44.696;10.622;2024-01-10T07:03:35;3.20;99.90
40638;DHT22;26336;44.696;10.622;2024-01-10T07:06:39;3.20;99.90
40638;DHT22;26336;44.696;10.622;2024-01-10T07:09:43;3.20;99.90
40638;DHT22;26336;44.696;10.622;2024-01-10T07:12:47;3.20;99.90
40638;DHT22;26336;44.696;10.622;2024-01-10T07:15:51;3.20;99.90
40638;DHT22;26336;44.696;10.622;2024-01-10T07:18:56;3.20;99.90
40638;DHT22;26336;44.696;10.622;2024-01-10T07:22:00;3.20;99.90
40638;DHT22;26336;44.696;10.622;2024-01-10T07:25:05;3.30;99.90
40638;DHT22;26336;44.696;10.622;2024-01-10T07:28:09;3.30;99.90
40638;DHT22;26336;44.696;10.622;2024-01-10T07:31:13;3.30;99.90
40638;DHT22;26336;44.696;10.622;2024-01-10T07:34:18;3.40;99.90
40638;DHT22;26336;44.696;10.622;2024-01-10T07:37:22;3.40;99.90
40638;DHT22;26336;44.696;10.622;2024-01-10T07:40:26;3.40;99.90
40638;DHT22;26336;44.696;10.622;2024-01-10T07:43:30;3.40;99.90
40638;DHT22;26336;44.696;10.622;2024-01-10T07:46:34;3.40;99.90
40638;DHT22;26336;44.696;10.622;2024-01-10T07:49:38;3.50;99.90
40638;DHT22;26336;44.696;10.622;2024-01-10T07:52:44;3.50;99.90
40638;DHT22;26336;44.696;10.622;2024-01-10T07:55:48;3.50;99.90
40638;DHT22;26336;44.696;10.622;2024-01-10T07:58:52;3.50;99.90
40638;DHT22;26336;44.696;10.622;2024-01-10T08:01:56;3.60;99.90
40638;DHT22;26336;44.696;10.622;2024-01-10T08:05:04;3.60;99.90
40638;DHT22;26336;44.696;10.622;2024-01-10T08:08:13;3.60;99.90
40638;DHT22;26336;44.696;10.622;2024-01-10T08:11:17;3.70;99.90
40638;DHT22;26336;44.696;10.622;2024-01-10T08:14:21;3.70;99.90
40638;DHT22;26336;44.696;10.622;2024-01-10T08:17:25;3.80;99.90
40638;DHT22;26336;44.696;10.622;2024-01-10T08:20:32;3.80;99.90
40638;DHT22;26336;44.696;10.622;2024-01-10T08:23:36;3.90;99.90
40638;DHT22;26336;44.696;10.622;2024-01-10T08:26:40;3.90;99.90
40638;DHT22;26336;44.696;10.622;2024-01-10T08:29:44;4.00;99.90
40638;DHT22;26336;44.696;10.622;2024-01-10T08:32:48;4.00;99.90
40638;DHT22;26336;44.696;10.622;2024-01-10T08:35:52;4.10;99.90
40638;DHT22;26336;44.696;10.622;2024-01-10T08:38:56;4.00;99.90
40638;DHT22;26336;44.696;10.622;2024-01-10T08:42:00;4.10;99.90
40638;DHT22;26336;44.696;10.622;2024-01-10T08:45:05;4.10;99.90
40638;DHT22;26336;44.696;10.622;2024-01-10T08:48:09;4.20;99.90
40638;DHT22;26336;44.696;10.622;2024-01-10T08:51:14;4.20;99.90
40638;DHT22;26336;44.696;10.622;2024-01-10T08:54:20;4.20;99.90
40638;DHT22;26336;44.696;10.622;2024-01-10T08:57:26;4.20;99.90
40638;DHT22;26336;44.696;10.622;2024-01-10T09:00:31;4.20;99.90
40638;DHT22;26336;44.696;10.622;2024-01-10T09:03:35;4.20;99.90
40638;DHT22;26336;44.696;10.622;2024-01-10T09:06:39;4.20;99.90
40638;DHT22;26336;44.696;10.622;2024-01-10T09:09:43;4.30;99.90
40638;DHT22;26336;44.696;10.622;2024-01-10T09:12:47;4.30;99.90
40638;DHT22;26336;44.696;10.622;2024-01-10T09:15:51;4.30;99.90
40638;DHT22;26336;44.696;10.622;2024-01-10T09:18:55;4.40;99.90
40638;DHT22;26336;44.696;10.622;2024-01-10T09:22:00;4.40;99.90
40638;DHT22;26336;44.696;10.622;2024-01-10T09:25:05;4.40;99.90
40638;DHT22;26336;44.696;10.622;2024-01-10T09:28:10;4.30;99.90
40638;DHT22;26336;44.696;10.622;2024-01-10T09:31:14;4.30;99.90
40638;DHT22;26336;44.696;10.622;2024-01-10T09:34:18;4.30;99.90
40638;DHT22;26336;44.696;10.622;2024-01-10T09:37:22;4.30;99.90
40638;DHT22;26336;44.696;10.622;2024-01-10T09:40:27;4.40;99.90
40638;DHT22;26336;44.696;10.622;2024-01-10T09:43:34;4.40;99.90
40638;DHT22;26336;44.696;10.622;2024-01-10T09:46:39;4.40;99.90
40638;DHT22;26336;44.696;10.622;2024-01-10T09:49:44;4.50;99.90
40638;DHT22;26336;44.696;10.622;2024-01-10T09:52:52;4.50;99.90
40638;DHT22;26336;44.696;10.622;2024-01-10T09:55:56;4.60;99.90
40638;DHT22;26336;44.696;10.622;2024-01-10T09:59:01;4.70;99.90
40638;DHT22;26336;44.696;10.622;2024-01-10T10:02:05;4.80;99.90
40638;DHT22;26336;44.696;10.622;2024-01-10T10:05:15;4.80;99.90
40638;DHT22;26336;44.696;10.622;2024-01-10T10:08:19;4.90;99.90
40638;DHT22;26336;44.696;10.622;2024-01-10T10:11:26;5.00;99.90
40638;DHT22;26336;44.696;10.622;2024-01-10T10:14:30;5.00;99.90
40638;DHT22;26336;44.696;10.622;2024-01-10T10:17:34;5.00;99.90
40638;DHT22;26336;44.696;10.622;2024-01-10T10:20:38;5.00;99.90
40638;DHT22;26336;44.696;10.622;2024-01-10T10:23:57;4.90;99.90
40638;DHT22;26336;44.696;10.622;2024-01-10T10:27:01;4.80;99.90
40638;DHT22;26336;44.696;10.622;2024-01-10T10:30:07;4.50;99.90
40638;DHT22;26336;44.696;10.622;2024-01-10T10:33:12;4.60;99.90
40638;DHT22;26336;44.696;10.622;2024-01-10T10:36:16;4.70;99.90
40638;DHT22;26336;44.696;10.622;2024-01-10T10:39:39;4.90;99.90
40638;DHT22;26336;44.696;10.622;2024-01-10T10:42:54;5.00;99.90
40638;DHT22;26336;44.696;10.622;2024-01-10T10:46:00;5.10;99.90
40638;DHT22;26336;44.696;10.622;2024-01-10T10:49:11;4.90;99.90
40638;DHT22;26336;44.696;10.622;2024-01-10T10:52:17;4.80;99.90
40638;DHT22;26336;44.696;10.622;2024-01-10T10:55:24;4.80;99.90
40638;DHT22;26336;44.696;10.622;2024-01-10T10:58:33;4.90;99.90
40638;DHT22;26336;44.696;10.622;2024-01-10T11:01:39;5.00;99.90
40638;DHT22;26336;44.696;10.622;2024-01-10T11:04:44;5.00;99.90
40638;DHT22;26336;44.696;10.622;2024-01-10T11:07:48;5.00;99.90
40638;DHT22;26336;44.696;10.622;2024-01-10T11:10:53;5.10;99.90
40638;DHT22;26336;44.696;10.622;2024-01-10T11:14:13;5.20;99.90
40638;DHT22;26336;44.696;10.622;2024-01-10T11:17:57;5.20;99.90
40638;DHT22;26336;44.696;10.622;2024-01-10T11:24:45;5.20;99.90
40638;DHT22;26336;44.696;10.622;2024-01-10T11:27:55;5.20;99.90
40638;DHT22;26336;44.696;10.622;2024-01-10T11:30:59;5.30;99.90
40638;DHT22;26336;44.696;10.622;2024-01-10T11:34:03;5.30;99.70
40638;DHT22;26336;44.696;10.622;2024-01-10T11:37:12;5.30;99.90
40638;DHT22;26336;44.696;10.622;2024-01-10T11:40:46;5.20;99.90
40638;DHT22;26336;44.696;10.622;2024-01-10T11:47:21;5.40;99.90
40638;DHT22;26336;44.696;10.622;2024-01-10T11:50:25;5.50;99.90
40638;DHT22;26336;44.696;10.622;2024-01-10T11:53:43;5.60;99.90
40638;DHT22;26336;44.696;10.622;2024-01-10T11:56:50;5.60;99.70
40638;DHT22;26336;44.696;10.622;2024-01-10T11:59:59;5.40;99.50
40638;DHT22;26336;44.696;10.622;2024-01-10T12:03:04;5.30;99.90
40638;DHT22;26336;44.696;10.622;2024-01-10T12:06:09;5.30;99.90
40638;DHT22;26336;44.696;10.622;2024-01-10T12:09:14;5.40;99.90
40638;DHT22;26336;44.696;10.622;2024-01-10T12:12:18;5.50;99.90
40638;DHT22;26336;44.696;10.622;2024-01-10T12:15:22;5.30;99.50
40638;DHT22;26336;44.696;10.622;2024-01-10T12:18:26;5.10;99.90
40638;DHT22;26336;44.696;10.622;2024-01-10T12:21:30;4.90;99.90
40638;DHT22;26336;44.696;10.622;2024-01-10T12:24:34;5.00;99.90
40638;DHT22;26336;44.696;10.622;2024-01-10T12:27:38;5.10;99.90
40638;DHT22;26336;44.696;10.622;2024-01-10T12:30:41;5.10;99.90
40638;DHT22;26336;44.696;10.622;2024-01-10T12:33:47;5.10;99.90
40638;DHT22;26336;44.696;10.622;2024-01-10T12:36:54;5.20;99.90
40638;DHT22;26336;44.696;10.622;2024-01-10T12:39:59;5.20;99.90
40638;DHT22;26336;44.696;10.622;2024-01-10T12:43:06;5.10;99.90
40638;DHT22;26336;44.696;10.622;2024-01-10T12:46:11;5.10;99.90
40638;DHT22;26336;44.696;10.622;2024-01-10T12:49:15;5.10;99.90
40638;DHT22;26336;44.696;10.622;2024-01-10T12:52:20;5.10;99.90
40638;DHT22;26336;44.696;10.622;2024-01-10T12:55:29;5.20;99.90
40638;DHT22;26336;44.696;10.622;2024-01-10T12:58:34;5.10;99.90
40638;DHT22;26336;44.696;10.622;2024-01-10T13:01:40;5.10;99.90
40638;DHT22;26336;44.696;10.622;2024-01-10T13:04:45;5.10;99.90
40638;DHT22;26336;44.696;10.622;2024-01-10T13:07:49;5.10;99.90
40638;DHT22;26336;44.696;10.622;2024-01-10T13:10:54;5.20;99.90
40638;DHT22;26336;44.696;10.622;2024-01-10T13:13:58;5.30;99.90
40638;DHT22;26336;44.696;10.622;2024-01-10T13:17:04;5.30;99.90
40638;DHT22;26336;44.696;10.622;2024-01-10T13:20:08;5.20;99.90
40638;DHT22;26336;44.696;10.622;2024-01-10T13:23:13;5.10;99.90
40638;DHT22;26336;44.696;10.622;2024-01-10T13:26:19;5.10;99.90
40638;DHT22;26336;44.696;10.622;2024-01-10T13:29:23;5.20;99.90
40638;DHT22;26336;44.696;10.622;2024-01-10T13:32:28;5.20;99.90
40638;DHT22;26336;44.696;10.622;2024-01-10T13:35:32;5.40;99.90
40638;DHT22;26336;44.696;10.622;2024-01-10T13:38:37;5.40;99.90
40638;DHT22;26336;44.696;10.622;2024-01-10T13:41:41;5.40;99.90
40638;DHT22;26336;44.696;10.622;2024-01-10T13:44:45;5.60;99.90
40638;DHT22;26336;44.696;10.622;2024-01-10T13:47:50;5.60;99.90
40638;DHT22;26336;44.696;10.622;2024-01-10T13:50:54;5.70;99.90
40638;DHT22;26336;44.696;10.622;2024-01-10T13:53:58;5.70;99.90
40638;DHT22;26336;44.696;10.622;2024-01-10T13:57:02;5.70;99.90
40638;DHT22;26336;44.696;10.622;2024-01-10T14:00:07;5.60;99.90
40638;DHT22;26336;44.696;10.622;2024-01-10T14:03:17;5.50;99.90
40638;DHT22;26336;44.696;10.622;2024-01-10T14:06:21;5.60;99.90
40638;DHT22;26336;44.696;10.622;2024-01-10T14:09:24;5.40;99.90
40638;DHT22;26336;44.696;10.622;2024-01-10T14:12:28;5.40;99.90
40638;DHT22;26336;44.696;10.622;2024-01-10T14:15:33;5.40;99.90
40638;DHT22;26336;44.696;10.622;2024-01-10T14:18:37;5.50;99.90
40638;DHT22;26336;44.696;10.622;2024-01-10T14:21:41;5.50;99.90
40638;DHT22;26336;44.696;10.622;2024-01-10T14:24:45;5.60;99.90
40638;DHT22;26336;44.696;10.622;2024-01-10T14:27:49;5.60;99.90
40638;DHT22;26336;44.696;10.622;2024-01-10T14:30:53;5.50;99.90
40638;DHT22;26336;44.696;10.622;2024-01-10T14:33:57;5.60;99.90
40638;DHT22;26336;44.696;10.622;2024-01-10T14:37:01;5.70;99.90
40638;DHT22;26336;44.696;10.622;2024-01-10T14:40:06;5.80;99.90
40638;DHT22;26336;44.696;10.622;2024-01-10T14:43:14;5.80;99.90
40638;DHT22;26336;44.696;10.622;2024-01-10T14:46:18;5.80;99.90
40638;DHT22;26336;44.696;10.622;2024-01-10T14:49:23;5.90;99.90
40638;DHT22;26336;44.696;10.622;2024-01-10T14:52:26;5.70;99.90
40638;DHT22;26336;44.696;10.622;2024-01-10T14:55:30;5.70;99.90
40638;DHT22;26336;44.696;10.622;2024-01-10T14:58:34;5.50;99.90
40638;DHT22;26336;44.696;10.622;2024-01-10T15:01:43;5.40;99.90
40638;DHT22;26336;44.696;10.622;2024-01-10T15:04:48;5.50;99.90
40638;DHT22;26336;44.696;10.622;2024-01-10T15:07:52;5.60;99.90
40638;DHT22;26336;44.696;10.622;2024-01-10T15:10:56;5.60;99.90
40638;DHT22;26336;44.696;10.622;2024-01-10T15:14:00;5.60;99.90
40638;DHT22;26336;44.696;10.622;2024-01-10T15:17:04;5.70;99.90
40638;DHT22;26336;44.696;10.622;2024-01-10T15:20:12;5.70;99.90
40638;DHT22;26336;44.696;10.622;2024-01-10T15:23:16;5.80;99.90
40638;DHT22;26336;44.696;10.622;2024-01-10T15:26:20;5.80;99.90
40638;DHT22;26336;44.696;10.622;2024-01-10T15:29:25;5.80;99.90
40638;DHT22;26336;44.696;10.622;2024-01-10T15:32:29;5.80;99.90
40638;DHT22;26336;44.696;10.622;2024-01-10T15:35:33;5.80;99.90
40638;DHT22;26336;44.696;10.622;2024-01-10T15:38:39;5.80;99.90
40638;DHT22;26336;44.696;10.622;2024-01-10T15:41:43;5.60;99.90
40638;DHT22;26336;44.696;10.622;2024-01-10T15:44:49;5.40;99.90
40638;DHT22;26336;44.696;10.622;2024-01-10T15:47:53;5.40;99.90
40638;DHT22;26336;44.696;10.622;2024-01-10T15:50:57;5.50;99.90
40638;DHT22;26336;44.696;10.622;2024-01-10T15:54:01;5.40;99.90
40638;DHT22;26336;44.696;10.622;2024-01-10T15:57:05;5.50;99.90
40638;DHT22;26336;44.696;10.622;2024-01-10T16:00:11;5.50;99.90
40638;DHT22;26336;44.696;10.622;2024-01-10T16:03:18;5.50;99.90
40638;DHT22;26336;44.696;10.622;2024-01-10T16:06:22;5.50;99.90
40638;DHT22;26336;44.696;10.622;2024-01-10T16:09:28;5.50;99.90
40638;DHT22;26336;44.696;10.622;2024-01-10T16:12:32;5.40;99.90
40638;DHT22;26336;44.696;10.622;2024-01-10T16:15:40;5.40;99.90
40638;DHT22;26336;44.696;10.622;2024-01-10T16:18:44;5.40;99.90
40638;DHT22;26336;44.696;10.622;2024-01-10T16:21:48;5.40;99.90
40638;DHT22;26336;44.696;10.622;2024-01-10T16:24:52;5.40;99.90
40638;DHT22;26336;44.696;10.622;2024-01-10T16:27:56;5.30;99.90
40638;DHT22;26336;44.696;10.622;2024-01-10T16:31:01;5.30;99.90
40638;DHT22;26336;44.696;10.622;2024-01-10T16:34:05;5.20;99.90
40638;DHT22;26336;44.696;10.622;2024-01-10T16:37:09;5.20;99.90
40638;DHT22;26336;44.696;10.622;2024-01-10T16:40:14;5.10;99.90
40638;DHT22;26336;44.696;10.622;2024-01-10T16:43:20;5.10;99.90
40638;DHT22;26336;44.696;10.622;2024-01-10T16:46:25;5.00;99.90
40638;DHT22;26336;44.696;10.622;2024-01-10T16:49:30;5.10;99.90
40638;DHT22;26336;44.696;10.622;2024-01-10T16:52:34;5.10;99.90
40638;DHT22;26336;44.696;10.622;2024-01-10T16:55:38;5.10;99.90
40638;DHT22;26336;44.696;10.622;2024-01-10T16:58:42;5.00;99.90
40638;DHT22;26336;44.696;10.622;2024-01-10T17:01:52;4.90;99.90
40638;DHT22;26336;44.696;10.622;2024-01-10T17:04:56;4.90;99.90
40638;DHT22;26336;44.696;10.622;2024-01-10T17:08:01;4.90;99.90
40638;DHT22;26336;44.696;10.622;2024-01-10T17:11:05;5.00;99.90
40638;DHT22;26336;44.696;10.622;2024-01-10T17:14:09;5.00;99.90
40638;DHT22;26336;44.696;10.622;2024-01-10T17:17:12;5.00;99.90
40638;DHT22;26336;44.696;10.622;2024-01-10T17:20:16;5.00;99.90
40638;DHT22;26336;44.696;10.622;2024-01-10T17:23:20;5.00;99.90
40638;DHT22;26336;44.696;10.622;2024-01-10T17:26:24;5.00;99.90
40638;DHT22;26336;44.696;10.622;2024-01-10T17:29:28;5.00;99.90
40638;DHT22;26336;44.696;10.622;2024-01-10T17:32:32;4.90;99.90
40638;DHT22;26336;44.696;10.622;2024-01-10T17:35:36;4.80;99.90
40638;DHT22;26336;44.696;10.622;2024-01-10T17:38:41;4.80;99.90
40638;DHT22;26336;44.696;10.622;2024-01-10T17:41:46;4.80;99.90
40638;DHT22;26336;44.696;10.622;2024-01-10T17:44:50;4.80;99.90
40638;DHT22;26336;44.696;10.622;2024-01-10T17:47:54;4.80;99.90
40638;DHT22;26336;44.696;10.622;2024-01-10T17:50:57;4.80;99.90
40638;DHT22;26336;44.696;10.622;2024-01-10T17:54:02;4.80;99.90
40638;DHT22;26336;44.696;10.622;2024-01-10T17:57:06;4.70;99.90
40638;DHT22;26336;44.696;10.622;2024-01-10T18:00:12;4.70;99.90
40638;DHT22;26336;44.696;10.622;2024-01-10T18:03:16;4.60;99.90
40638;DHT22;26336;44.696;10.622;2024-01-10T18:06:20;4.60;99.90
40638;DHT22;26336;44.696;10.622;2024-01-10T18:09:24;4.60;99.90
40638;DHT22;26336;44.696;10.622;2024-01-10T18:12:28;4.60;99.90
40638;DHT22;26336;44.696;10.622;2024-01-10T18:15:32;4.50;99.90
40638;DHT22;26336;44.696;10.622;2024-01-10T18:18:36;4.50;99.90
40638;DHT22;26336;44.696;10.622;2024-01-10T18:21:41;4.40;99.90
40638;DHT22;26336;44.696;10.622;2024-01-10T18:24:47;4.40;99.90
40638;DHT22;26336;44.696;10.622;2024-01-10T18:27:51;4.40;99.90
40638;DHT22;26336;44.696;10.622;2024-01-10T18:30:55;4.40;99.90
40638;DHT22;26336;44.696;10.622;2024-01-10T18:33:59;4.40;99.90
40638;DHT22;26336;44.696;10.622;2024-01-10T18:37:03;4.40;99.90
40638;DHT22;26336;44.696;10.622;2024-01-10T18:40:07;4.40;99.90
40638;DHT22;26336;44.696;10.622;2024-01-10T18:43:11;4.30;99.90
40638;DHT22;26336;44.696;10.622;2024-01-10T18:46:15;4.30;99.90
40638;DHT22;26336;44.696;10.622;2024-01-10T18:49:21;4.30;99.90
40638;DHT22;26336;44.696;10.622;2024-01-10T18:52:25;4.30;99.90
40638;DHT22;26336;44.696;10.622;2024-01-10T18:55:30;4.30;99.90
40638;DHT22;26336;44.696;10.622;2024-01-10T18:58:34;4.20;99.90
40638;DHT22;26336;44.696;10.622;2024-01-10T19:01:41;4.30;99.90
40638;DHT22;26336;44.696;10.622;2024-01-10T19:04:47;4.20;99.90
40638;DHT22;26336;44.696;10.622;2024-01-10T19:07:51;4.20;99.90
40638;DHT22;26336;44.696;10.622;2024-01-10T19:10:55;4.20;99.90
40638;DHT22;26336;44.696;10.622;2024-01-10T19:13:59;4.20;99.90
40638;DHT22;26336;44.696;10.622;2024-01-10T19:17:03;4.10;99.90
40638;DHT22;26336;44.696;10.622;2024-01-10T19:20:08;4.10;99.90
40638;DHT22;26336;44.696;10.622;2024-01-10T19:23:14;4.00;99.90
40638;DHT22;26336;44.696;10.622;2024-01-10T19:26:22;4.10;99.90
40638;DHT22;26336;44.696;10.622;2024-01-10T19:29:26;4.10;99.90
40638;DHT22;26336;44.696;10.622;2024-01-10T19:32:30;4.10;99.90
40638;DHT22;26336;44.696;10.622;2024-01-10T19:35:34;4.10;99.90